Catàleg de serveis del Meteocat
Campanya meteocatpedra

Dades de l'estació automàtica Santuari de Queralt

?
?
Resum diari 21:30 TU
Dades diàries de l'estació meteorològica
Temperatura mitjana 4.6 °C
Temperatura màxima 9.5 °C 12:29 TU
Temperatura mínima 1.5 °C 4:22 TU
Humitat relativa mitjana 80%
Precipitació acumulada 0.0 mm
Ratxa màxima del vent (10 m) 33.1 km/h - 294º 18:24 TU
Irradiació solar global 5.6 MJ/m2

El tram horari està expressat en Temps Universal (TU). Cal sumar una hora en horari d'hivern i dues en horari d'estiu per passar a l'hora oficial.

Santuari de Queralt

Metadades estació meteorol´gica
Municipi Berga
Comarca Berguedà
Altitud 1167 m
Data alta 23.01.2002
Estat actual Operativa
Dades de període
Període
TU
TM
°C
TX
°C
TN
°C
HRM
%
PPT
mm
VVM (10 m)
km/h
DVM (10 m)
graus
VVX (10 m)
km/h
RS
W/m2
00:00 - 00:30 6.1 6.9 4.7 52 0.0 4.7 267 15.1 0
00:30 - 01:00 5.0 5.8 4.3 58 0.0 3.6 269 14.0 0
01:00 - 01:30 3.6 4.5 2.7 63 0.0 2.9 306 10.4 0
01:30 - 02:00 3.5 4.2 2.5 65 0.0 5.0 211 10.8 0
02:00 - 02:30 3.7 4.1 3.4 62 0.0 7.2 319 11.9 0
02:30 - 03:00 4.1 4.3 3.9 59 0.0 5.0 6 8.3 0
03:00 - 03:30 4.3 4.4 4.1 58 0.0 4.0 62 8.3 0
03:30 - 04:00 3.3 4.2 2.5 67 0.0 4.0 56 9.0 0
04:00 - 04:30 1.9 2.5 1.5 77 0.0 5.4 29 12.6 0
04:30 - 05:00 1.9 2.4 1.6 82 0.0 10.1 23 16.2 0
05:00 - 05:30 2.8 3.1 2.5 77 0.0 8.3 39 18.0 0
05:30 - 06:00 3.0 3.1 2.8 78 0.0 8.3 29 15.8 0
06:00 - 06:30 2.8 2.9 2.7 78 0.0 8.6 349 16.2 0
06:30 - 07:00 3.0 3.2 2.8 77 0.0 8.6 9 16.6 4
07:00 - 07:30 3.3 3.4 3.2 75 0.0 10.4 37 16.6 18
07:30 - 08:00 3.3 3.6 3.2 77 0.0 5.0 9 9.0 48
08:00 - 08:30 3.7 3.8 3.6 81 0.0 5.4 0 10.8 63
08:30 - 09:00 4.1 4.3 3.8 83 0.0 2.2 63 6.1 61
09:00 - 09:30 4.9 5.3 4.4 82 0.0 1.1 147 4.0 102
09:30 - 10:00 5.2 5.5 4.9 80 0.0 5.4 179 13.3 183
10:00 - 10:30 5.4 5.6 5.2 82 0.0 10.4 176 18.0 189
10:30 - 11:00 5.3 5.7 5.0 82 0.0 8.6 174 16.2 214
11:00 - 11:30 5.6 6.1 5.2 83 0.0 6.8 150 10.8 263
11:30 - 12:00 7.5 8.5 5.8 76 0.0 7.6 148 12.6 445
12:00 - 12:30 8.6 9.5 7.9 73 0.0 9.4 154 15.8 539
12:30 - 13:00 7.9 9.4 6.3 76 0.0 11.5 165 20.2 259
13:00 - 13:30 6.0 7.6 5.5 88 0.0 11.9 170 19.8 187
13:30 - 14:00 8.1 8.7 6.6 78 0.0 7.9 145 13.3 175
14:00 - 14:30 7.1 8.2 6.3 84 0.0 7.2 146 11.9 143
14:30 - 15:00 6.6 7.1 5.9 86 0.0 7.9 162 17.3 62
15:00 - 15:30 5.9 6.7 5.8 91 0.0 9.0 164 18.4 56
15:30 - 16:00 7.4 8.1 6.0 84 0.0 5.0 78 13.3 117
16:00 - 16:30 5.0 5.9 4.5 97 0.0 6.5 334 11.5 21
16:30 - 17:00 4.3 4.5 4.1 99 0.0 9.0 6 15.1 0
17:00 - 17:30 4.2 4.5 3.7 97 0.0 10.1 38 16.9 0
17:30 - 18:00 3.9 4.7 3.5 93 0.0 9.0 321 20.5 (s/d)
18:00 - 18:30 5.5 6.8 4.1 65 0.0 12.2 261 33.1 (s/d)
18:30 - 19:00 5.9 6.8 4.0 58 0.0 10.1 285 29.2 (s/d)
19:00 - 19:30 3.2 3.9 2.7 98 0.0 6.8 30 14.4 0
19:30 - 20:00 3.0 3.2 2.8 100 0.0 7.6 36 14.4 0
20:00 - 20:30 3.2 3.3 3.0 100 0.0 5.0 138 10.4 0
20:30 - 21:00 3.0 3.3 2.7 100 0.0 6.1 310 14.0 0
21:00 - 21:30 2.8 3.0 2.5 100 0.0 2.5 46 6.8 0
21:30 - 22:00 3.0 3.2 2.8 100 0.0 3.6 158 11.2 0

Les dades en taronja només han passat un control de qualitat automàtic. Resta pendent la seva validació definitiva.